createdAt,value
2018-12-05T00:08:29.635Z,35.43
2018-12-05T00:14:06.002Z,39.27
2018-12-05T00:16:52.499Z,33.50
2018-12-05T00:19:35.101Z,42.63
2018-12-05T00:22:13.205Z,42.50
2018-12-05T00:25:11.105Z,45.30
2018-12-05T00:31:06.701Z,56.00
2018-12-05T00:34:03.302Z,53.17
2018-12-05T00:40:01.185Z,55.07
2018-12-05T00:42:46.799Z,60.60
2018-12-05T00:48:45.401Z,56.40
2018-12-05T00:51:40.699Z,53.37
2018-12-05T01:00:35.402Z,63.70
2018-12-05T01:03:20.489Z,70.77
2018-12-05T01:08:57.498Z,65.40
2018-12-05T01:11:46.901Z,64.90
2018-12-05T01:17:39.801Z,49.47
2018-12-05T01:37:08.602Z,65.40
2018-12-05T01:43:41.801Z,77.67
2018-12-05T01:46:10.901Z,69.23
2018-12-05T01:48:39.843Z,72.47
2018-12-05T01:51:10.495Z,53.50
2018-12-05T01:53:40.158Z,64.27
2018-12-05T01:56:09.181Z,77.50
2018-12-05T01:58:37.813Z,70.90
2018-12-05T02:01:08.344Z,67.27
2018-12-05T02:03:44.131Z,85.87
2018-12-05T02:06:15.136Z,85.53
2018-12-05T02:08:45.390Z,121.27
2018-12-05T02:11:16.397Z,155.20
2018-12-05T02:13:47.299Z,62.87
2018-12-05T02:16:16.987Z,107.30
2018-12-05T02:18:46.504Z,67.20
2018-12-05T02:21:16.655Z,345.27
2018-12-05T02:23:45.239Z,304.80
2018-12-05T02:26:16.218Z,87.60
2018-12-05T02:28:45.719Z,63.23
2018-12-05T02:31:14.438Z,68.20
2018-12-05T02:33:43.534Z,85.63
2018-12-05T02:36:14.861Z,76.23
2018-12-05T02:38:45.136Z,89.77
2018-12-05T02:41:13.791Z,79.70
2018-12-05T02:43:42.579Z,94.43
2018-12-05T02:46:11.248Z,89.77
2018-12-05T02:48:40.011Z,96.93
2018-12-05T02:51:11.416Z,107.60
2018-12-05T02:53:40.812Z,100.60
2018-12-05T02:56:11.439Z,103.60
2018-12-05T02:58:40.230Z,106.63
2018-12-05T03:01:08.930Z,94.57
2018-12-05T03:03:44.309Z,96.87
2018-12-05T03:06:13.137Z,94.53
2018-12-05T03:08:41.841Z,98.20
2018-12-05T03:11:11.021Z,86.30
2018-12-05T03:13:39.804Z,80.13
2018-12-05T03:16:08.619Z,205.13
2018-12-05T03:18:38.212Z,124.73
2018-12-05T03:21:06.897Z,831.60
2018-12-05T03:23:35.398Z,584.27
2018-12-05T03:26:04.248Z,66.73
2018-12-05T03:28:33.018Z,117.30
2018-12-05T03:31:02.680Z,74.07
2018-12-05T03:33:32.382Z,79.03
2018-12-05T03:36:01.061Z,71.27
2018-12-05T03:38:30.558Z,84.23
2018-12-05T03:40:59.283Z,61.10
2018-12-05T03:43:28.091Z,60.83
2018-12-05T03:45:56.748Z,48.80
2018-12-05T03:48:25.604Z,46.40
2018-12-05T03:50:54.206Z,29.57
2018-12-05T03:53:22.849Z,29.43
2018-12-05T03:55:51.749Z,24.60
2018-12-05T03:58:20.471Z,27.57
2018-12-05T04:00:49.190Z,28.20
2018-12-05T04:03:24.805Z,25.70
2018-12-05T04:05:55.774Z,34.10
2018-12-05T04:08:24.741Z,35.10
2018-12-05T04:10:53.252Z,31.43
2018-12-05T04:13:21.799Z,28.83
2018-12-05T04:15:51.819Z,32.07
2018-12-05T04:18:20.313Z,31.87
2018-12-05T04:20:48.952Z,37.40
2018-12-05T04:23:17.773Z,44.53
2018-12-05T04:25:46.462Z,38.27
2018-12-05T04:28:15.083Z,46.20
2018-12-05T04:30:44.034Z,49.43
2018-12-05T04:33:15.517Z,48.83
2018-12-05T04:35:44.166Z,49.73
2018-12-05T04:38:12.990Z,48.23
2018-12-05T04:40:41.555Z,42.13
2018-12-05T04:43:10.111Z,42.33
2018-12-05T04:45:38.903Z,50.40
2018-12-05T04:48:07.612Z,55.20
2018-12-05T04:50:36.160Z,65.27
2018-12-05T04:53:04.977Z,63.20
2018-12-05T04:55:33.662Z,55.10
2018-12-05T04:58:03.336Z,43.47
2018-12-05T05:00:32.101Z,55.00
2018-12-05T05:03:00.711Z,53.10
2018-12-05T05:05:29.304Z,51.30
2018-12-05T05:07:58.117Z,62.33
2018-12-05T05:10:26.785Z,70.83
2018-12-05T05:12:55.447Z,72.23
2018-12-05T05:15:24.964Z,78.50
2018-12-05T05:17:54.497Z,72.60
2018-12-05T05:20:23.299Z,73.40
2018-12-05T05:22:52.017Z,73.47
2018-12-05T05:25:21.810Z,72.60
2018-12-05T05:27:50.674Z,69.23
2018-12-05T05:30:20.509Z,72.50
2018-12-05T05:32:51.607Z,63.33
2018-12-05T05:35:21.104Z,66.40
2018-12-05T05:37:49.725Z,59.60
2018-12-05T05:40:18.334Z,52.90
2018-12-05T05:42:47.092Z,48.70
2018-12-05T05:45:15.812Z,57.80
2018-12-05T05:47:47.672Z,56.53
2018-12-05T05:50:16.244Z,61.67
2018-12-05T05:52:44.926Z,60.20
2018-12-05T05:55:13.649Z,61.67
2018-12-05T05:57:44.226Z,61.70
2018-12-05T06:00:12.929Z,61.00
2018-12-05T06:02:47.112Z,54.67
2018-12-05T06:05:18.511Z,51.30
2018-12-05T06:07:47.985Z,51.37
2018-12-05T06:10:16.677Z,43.73
2018-12-05T06:12:45.458Z,39.40
2018-12-05T06:15:14.294Z,35.60
2018-12-05T06:17:42.861Z,42.97
2018-12-05T06:20:13.511Z,27.27
2018-12-05T06:22:42.248Z,26.30
2018-12-05T06:25:12.509Z,36.20
2018-12-05T06:27:41.180Z,42.70
2018-12-05T06:30:10.967Z,39.47
2018-12-05T06:32:46.500Z,41.53
2018-12-05T06:35:15.412Z,40.73
2018-12-05T06:37:44.085Z,40.63
2018-12-05T06:40:13.372Z,37.90
2018-12-05T06:42:42.290Z,34.73
2018-12-05T06:45:11.965Z,31.93
2018-12-05T06:47:40.680Z,31.47
2018-12-05T06:50:10.458Z,35.37
2018-12-05T06:52:38.997Z,34.30
2018-12-05T06:55:07.814Z,26.53
2018-12-05T06:57:45.064Z,27.70
2018-12-05T07:00:13.980Z,22.50
2018-12-05T07:02:48.212Z,18.00
2018-12-05T07:05:19.580Z,20.27
2018-12-05T07:07:51.015Z,16.90
2018-12-05T07:10:19.680Z,14.60
2018-12-05T07:12:48.273Z,12.90
2018-12-05T07:15:17.123Z,15.27
2018-12-05T07:17:45.903Z,23.30
2018-12-05T07:20:14.631Z,9.60
2018-12-05T07:22:43.725Z,5.67
2018-12-05T07:25:12.289Z,6.43
2018-12-05T07:27:41.881Z,5.33
2018-12-05T07:30:11.075Z,6.00
2018-12-05T07:32:42.974Z,6.47
2018-12-05T07:35:12.332Z,9.77
2018-12-05T07:37:51.520Z,8.03
2018-12-05T07:40:20.367Z,8.33
2018-12-05T07:42:49.720Z,7.80
2018-12-05T08:28:28.214Z,8.07
2018-12-05T08:55:15.988Z,11.03
2018-12-05T08:57:52.216Z,11.03
2018-12-05T09:00:24.293Z,12.30
2018-12-05T09:02:56.424Z,12.10
2018-12-05T09:05:27.771Z,14.67
2018-12-05T09:07:56.499Z,12.93
2018-12-05T09:10:27.045Z,12.90
2018-12-05T09:12:55.783Z,12.53
2018-12-05T09:15:25.654Z,11.73
2018-12-05T09:17:54.621Z,11.60
2018-12-05T09:20:23.514Z,12.37
2018-12-05T09:22:52.381Z,11.20
2018-12-05T09:25:21.329Z,9.93
2018-12-05T09:27:50.101Z,9.47
2018-12-05T09:30:18.973Z,9.27
2018-12-05T09:32:48.579Z,10.00
2018-12-05T09:35:17.884Z,14.23
2018-12-05T09:37:46.825Z,9.80
2018-12-05T09:40:15.901Z,11.17
2018-12-05T09:42:44.556Z,9.97
2018-12-05T09:45:13.363Z,9.50
2018-12-05T09:47:47.920Z,10.77
2018-12-05T09:50:19.245Z,9.17
2018-12-05T09:52:48.001Z,9.37
2018-12-05T09:55:16.589Z,9.63
2018-12-05T09:57:45.376Z,13.77
2018-12-05T10:00:14.150Z,11.53
2018-12-05T10:02:44.493Z,10.23
2018-12-05T10:05:14.148Z,9.90
2018-12-05T10:07:43.434Z,9.37
2018-12-05T10:10:12.494Z,10.23
2018-12-05T10:12:47.656Z,11.30
2018-12-05T10:15:16.563Z,9.90
2018-12-05T10:17:45.454Z,9.43
2018-12-05T10:20:14.241Z,9.10
2018-12-05T10:22:43.411Z,8.47
2018-12-05T10:25:12.088Z,8.83
2018-12-05T10:27:40.766Z,9.30
2018-12-05T10:30:09.873Z,8.57
2018-12-05T10:32:40.006Z,8.83
2018-12-05T10:35:09.935Z,8.40
2018-12-05T10:37:50.217Z,8.37
2018-12-05T10:40:19.021Z,7.97
2018-12-05T10:42:47.736Z,8.83
2018-12-05T10:45:16.605Z,8.87
2018-12-05T10:47:46.348Z,8.50
2018-12-05T10:50:15.150Z,9.13
2018-12-05T10:52:43.812Z,9.23
2018-12-05T10:55:12.647Z,9.17
2018-12-05T10:57:41.217Z,9.23
2018-12-05T11:00:12.423Z,8.57
2018-12-05T11:02:47.639Z,9.07
2018-12-05T11:05:21.886Z,9.93
2018-12-05T11:07:57.235Z,10.90
2018-12-05T11:10:31.752Z,9.80
2018-12-05T11:13:06.280Z,9.63
2018-12-05T11:15:40.627Z,10.80
2018-12-05T11:18:15.037Z,10.27
2018-12-05T11:20:49.395Z,11.70
2018-12-05T11:26:27.826Z,9.07
2018-12-05T11:28:56.507Z,9.10
2018-12-05T11:31:26.090Z,8.87
2018-12-05T11:33:54.710Z,8.33
2018-12-05T11:36:24.391Z,9.13
2018-12-05T11:39:09.025Z,8.80
2018-12-05T11:41:47.424Z,7.73
2018-12-05T11:44:17.867Z,6.57
2018-12-05T11:46:56.523Z,7.40
2018-12-05T11:49:26.903Z,6.17
2018-12-05T11:54:34.422Z,7.77
2018-12-05T11:57:13.621Z,6.63
2018-12-05T11:59:43.463Z,5.90
2018-12-05T12:02:12.795Z,7.37
2018-12-05T12:04:42.572Z,7.07
2018-12-05T12:07:20.130Z,6.20
2018-12-05T12:09:50.266Z,7.33
2018-12-05T12:12:34.832Z,6.30
2018-12-05T12:15:04.203Z,3.90
2018-12-05T12:17:44.033Z,4.80
2018-12-05T12:20:12.707Z,5.07
2018-12-05T12:22:53.450Z,5.30
2018-12-05T12:25:22.138Z,7.13
2018-12-05T12:27:51.245Z,2.80
2018-12-05T12:30:20.358Z,3.07
2018-12-05T12:32:49.840Z,3.50
2018-12-05T12:35:18.881Z,5.57
2018-12-05T12:37:54.670Z,3.00
2018-12-05T12:40:24.196Z,3.20
2018-12-05T12:42:53.157Z,3.53
2018-12-05T12:45:22.542Z,4.07
2018-12-05T12:47:52.277Z,4.17
2018-12-05T12:50:21.655Z,3.97
2018-12-05T12:52:53.437Z,3.00
2018-12-05T12:55:22.698Z,2.63
2018-12-05T12:57:52.081Z,4.30
2018-12-05T13:00:22.400Z,2.27
2018-12-05T13:03:00.338Z,4.10
2018-12-05T13:05:31.313Z,2.63
2018-12-05T13:08:00.377Z,2.63
2018-12-05T13:10:29.802Z,2.93
2018-12-05T13:12:59.557Z,4.53
2018-12-05T13:15:29.333Z,2.57
2018-12-05T13:17:58.631Z,2.63
2018-12-05T13:20:28.025Z,4.33
2018-12-05T13:22:57.387Z,3.33
2018-12-05T13:25:27.781Z,3.57
2018-12-05T13:27:57.308Z,4.40
2018-12-05T13:30:26.200Z,4.47
2018-12-05T13:32:55.274Z,2.80
2018-12-05T13:35:24.701Z,3.80
2018-12-05T13:37:54.356Z,3.90
2018-12-05T13:40:23.848Z,6.67
2018-12-05T13:42:53.793Z,6.17
2018-12-05T13:45:23.048Z,5.07
2018-12-05T13:47:52.343Z,3.27
2018-12-05T13:50:21.413Z,3.43
2018-12-05T13:52:54.233Z,4.53
2018-12-05T13:55:24.028Z,2.33
2018-12-05T13:57:53.009Z,5.60
2018-12-05T14:00:22.379Z,2.70
2018-12-05T14:02:51.699Z,5.67
2018-12-05T14:05:21.013Z,6.40
2018-12-05T14:08:00.935Z,3.60
2018-12-05T14:10:32.112Z,4.47
2018-12-05T14:13:01.380Z,4.20
2018-12-05T14:15:31.381Z,5.87
2018-12-05T14:18:01.696Z,5.60
2018-12-05T14:20:32.925Z,3.87
2018-12-05T14:23:04.326Z,6.13
2018-12-05T14:25:33.674Z,3.83
2018-12-05T14:28:03.574Z,4.20
2018-12-05T14:30:33.316Z,3.10
2018-12-05T14:33:03.171Z,5.30
2018-12-05T14:35:33.699Z,4.00
2018-12-05T14:38:03.249Z,3.53
2018-12-05T14:40:33.124Z,3.40
2018-12-05T14:43:11.427Z,4.57
2018-12-05T14:45:41.214Z,3.90
2018-12-05T14:48:10.599Z,7.70
2018-12-05T14:50:40.386Z,5.47
2018-12-05T14:53:09.969Z,6.37
2018-12-05T14:55:40.264Z,3.90
2018-12-05T14:58:19.044Z,5.27
2018-12-05T15:00:49.986Z,4.70
2018-12-05T15:03:25.737Z,5.00
2018-12-05T15:05:55.198Z,6.00
2018-12-05T15:08:34.151Z,4.27
2018-12-05T15:11:04.091Z,4.23
2018-12-05T15:13:34.594Z,4.43
2018-12-05T15:16:03.774Z,3.33
2018-12-05T15:18:36.960Z,5.50
2018-12-05T15:24:50.634Z,4.53
2018-12-05T15:30:46.691Z,3.50
2018-12-05T15:33:16.080Z,4.30
2018-12-05T15:35:46.161Z,6.97
2018-12-05T15:38:15.643Z,4.40
2018-12-05T15:40:46.326Z,4.07
2018-12-05T15:43:15.863Z,4.07
2018-12-05T15:45:49.729Z,3.03
2018-12-05T15:48:20.792Z,3.03
2018-12-05T15:50:51.799Z,4.53
2018-12-05T15:53:21.048Z,4.17
2018-12-05T15:55:49.906Z,3.80
2018-12-05T15:58:19.836Z,2.77
2018-12-05T16:00:51.283Z,3.80
2018-12-05T16:03:28.937Z,3.30
2018-12-05T16:05:59.811Z,4.30
2018-12-05T16:08:29.309Z,3.40
2018-12-05T16:10:58.203Z,3.17
2018-12-05T16:13:28.684Z,3.67
2018-12-05T16:15:58.227Z,3.13
2018-12-05T16:18:27.315Z,4.10
2018-12-05T16:21:06.524Z,3.67
2018-12-05T16:23:38.942Z,4.40
2018-12-05T16:26:10.783Z,3.20
2018-12-05T16:28:43.292Z,4.47
2018-12-05T16:31:13.354Z,4.83
2018-12-05T16:33:42.921Z,4.60
2018-12-05T16:36:12.560Z,5.07
2018-12-05T16:38:43.630Z,8.50
2018-12-05T16:41:13.738Z,9.03
2018-12-05T16:43:43.388Z,7.40
2018-12-05T16:46:12.856Z,20.97
2018-12-05T16:48:42.204Z,12.27
2018-12-05T16:51:12.015Z,20.30
2018-12-05T16:53:41.766Z,18.50
2018-12-05T16:56:11.047Z,12.40
2018-12-05T16:58:39.997Z,6.47
2018-12-05T17:01:09.269Z,9.47
2018-12-05T17:03:49.272Z,9.00
2018-12-05T17:06:20.169Z,11.27
2018-12-05T17:08:49.510Z,8.80
2018-12-05T17:11:19.197Z,9.20
2018-12-05T17:13:48.187Z,10.30
2018-12-05T17:16:18.386Z,40.13
2018-12-05T17:18:49.440Z,31.10
2018-12-05T17:21:18.651Z,13.80
2018-12-05T17:23:47.670Z,14.63
2018-12-05T17:26:18.049Z,9.90
2018-12-05T17:28:47.201Z,8.00
2018-12-05T17:31:16.575Z,12.80
2018-12-05T17:33:46.265Z,16.47
2018-12-05T17:36:15.882Z,9.83
2018-12-05T17:38:45.203Z,12.47
2018-12-05T17:41:14.877Z,18.10
2018-12-05T17:43:44.095Z,7.93
2018-12-05T17:46:13.769Z,7.67
2018-12-05T17:48:43.374Z,8.17
2018-12-05T17:51:12.938Z,7.80
2018-12-05T17:53:42.229Z,6.33
2018-12-05T17:56:12.270Z,8.13
2018-12-05T17:58:41.728Z,6.70
2018-12-05T18:01:11.105Z,7.87
2018-12-05T18:03:50.925Z,8.27
2018-12-05T18:06:20.026Z,7.70
2018-12-05T18:08:50.197Z,9.20
2018-12-05T18:11:19.485Z,9.23
2018-12-05T18:13:48.775Z,9.67
2018-12-05T18:16:18.302Z,10.87
2018-12-05T18:18:48.373Z,9.00
2018-12-05T18:21:17.752Z,10.33
2018-12-05T18:23:47.531Z,8.93
2018-12-05T18:26:16.740Z,10.23
2018-12-05T18:28:46.965Z,12.30
2018-12-05T18:31:16.795Z,11.80
2018-12-05T18:33:46.051Z,20.23
2018-12-05T18:36:15.200Z,8.57
2018-12-05T18:38:44.613Z,9.00
2018-12-05T18:41:13.690Z,9.90
2018-12-05T18:43:43.357Z,9.77
2018-12-05T18:46:13.468Z,7.87
2018-12-05T18:48:42.602Z,6.80
2018-12-05T18:51:12.265Z,6.17
2018-12-05T18:53:43.120Z,7.37
2018-12-05T18:56:15.636Z,8.53
2018-12-05T19:44:57.336Z,9.30
2018-12-05T19:47:33.351Z,6.93
2018-12-05T20:00:24.231Z,8.17
2018-12-05T20:02:53.628Z,6.77
2018-12-05T20:05:22.976Z,7.40
2018-12-05T20:08:16.967Z,7.63
2018-12-05T20:14:03.760Z,7.10
2018-12-05T20:16:48.860Z,6.60
2018-12-05T20:19:34.460Z,8.03
2018-12-05T20:22:16.360Z,8.03
2018-12-05T20:24:51.998Z,10.73
2018-12-05T20:27:36.456Z,7.43
2018-12-05T20:30:23.196Z,6.93
2018-12-05T20:33:14.241Z,8.53
2018-12-05T20:39:09.274Z,8.20
2018-12-05T20:41:43.739Z,10.17
2018-12-05T20:44:13.403Z,7.90
2018-12-05T20:46:53.862Z,7.73
2018-12-05T20:49:37.804Z,8.33
2018-12-05T21:01:38.939Z,8.37
2018-12-05T21:04:29.652Z,8.30
2018-12-05T21:17:10.174Z,10.00
2018-12-05T21:19:41.600Z,9.57
2018-12-05T21:22:21.287Z,9.20
2018-12-05T21:27:34.144Z,10.03
2018-12-05T21:30:07.421Z,9.67
2018-12-05T21:32:46.475Z,10.70
2018-12-05T21:35:18.017Z,10.27
2018-12-05T21:37:56.958Z,9.33
2018-12-05T21:40:27.450Z,11.03
2018-12-05T21:42:57.367Z,11.70
2018-12-05T21:45:27.270Z,10.77
2018-12-05T21:48:02.296Z,12.00
2018-12-05T21:50:31.610Z,11.23
2018-12-05T21:53:10.624Z,10.00
2018-12-05T21:55:40.731Z,10.60
2018-12-05T21:58:09.941Z,10.83
2018-12-05T22:00:39.331Z,11.40
2018-12-05T22:03:14.996Z,11.70
2018-12-05T22:05:46.701Z,12.10
2018-12-05T22:08:21.190Z,10.10
2018-12-05T22:10:50.269Z,9.87
2018-12-05T22:13:19.509Z,9.77
2018-12-05T22:15:49.039Z,12.40
2018-12-05T22:18:18.039Z,14.80
2018-12-05T22:20:46.801Z,16.47
2018-12-05T22:23:16.317Z,19.77
2018-12-05T22:25:45.289Z,16.23
2018-12-05T22:28:15.560Z,15.20
2018-12-05T22:30:44.874Z,16.10
2018-12-05T22:33:13.999Z,14.30
2018-12-05T22:35:42.866Z,13.90
2018-12-05T22:38:12.020Z,16.90
2018-12-05T22:40:41.137Z,18.10
2018-12-05T22:43:10.065Z,14.37
2018-12-05T22:45:39.057Z,16.03
2018-12-05T22:48:08.197Z,16.00
2018-12-05T22:50:37.005Z,17.60
2018-12-05T22:53:06.727Z,21.47
2018-12-05T22:55:36.148Z,17.07
2018-12-05T22:58:10.044Z,16.83
2018-12-05T23:00:43.014Z,14.47
2018-12-05T23:03:14.064Z,16.17
2018-12-05T23:05:52.056Z,16.70
2018-12-05T23:08:23.134Z,18.70
2018-12-05T23:10:52.174Z,17.67
2018-12-05T23:13:20.750Z,20.27
2018-12-05T23:15:49.784Z,16.90
2018-12-05T23:18:19.793Z,20.40
2018-12-05T23:20:48.674Z,12.60
2018-12-05T23:23:17.984Z,18.23
2018-12-05T23:25:46.907Z,17.03
2018-12-05T23:28:17.784Z,19.93
2018-12-05T23:30:46.639Z,18.67
2018-12-05T23:33:15.576Z,18.53
2018-12-05T23:35:44.232Z,19.70
2018-12-05T23:38:14.061Z,20.83
2018-12-05T23:40:43.051Z,19.93
2018-12-05T23:43:12.575Z,22.43
2018-12-05T23:45:41.579Z,19.97
2018-12-05T23:48:10.212Z,18.37
2018-12-05T23:50:39.952Z,22.07
2018-12-05T23:53:08.705Z,18.70
2018-12-05T23:55:37.522Z,18.73
2018-12-05T23:58:06.284Z,19.87
